createdAt,value
2022-08-10T00:01:52.242Z,17.66
2022-08-10T00:04:22.572Z,17.58
2022-08-10T00:06:54.186Z,17.51
2022-08-10T00:09:23.958Z,17.41
2022-08-10T00:11:52.798Z,17.39
2022-08-10T00:14:21.596Z,17.35
2022-08-10T00:16:50.233Z,17.25
2022-08-10T00:19:19.120Z,17.13
2022-08-10T00:21:48.556Z,17.05
2022-08-10T00:24:18.635Z,17.18
2022-08-10T00:27:52.661Z,17.18
2022-08-10T00:29:36.207Z,17.14
2022-08-10T00:32:05.236Z,17.03
2022-08-10T00:34:34.978Z,16.91
2022-08-10T00:37:03.825Z,16.83
2022-08-10T00:39:35.904Z,16.78
2022-08-10T00:42:08.309Z,16.64
2022-08-10T00:44:38.433Z,16.52
2022-08-10T00:47:15.333Z,16.47
2022-08-10T00:49:57.185Z,16.63
2022-08-10T00:52:27.833Z,16.75
2022-08-10T00:54:58.965Z,16.78
2022-08-10T00:57:27.812Z,16.69
2022-08-10T01:00:02.132Z,16.59
2022-08-10T01:02:39.359Z,16.53
2022-08-10T01:05:11.346Z,16.48
2022-08-10T01:08:11.590Z,16.41
2022-08-10T01:10:57.128Z,15.05
2022-08-10T01:13:33.265Z,16.34
2022-08-10T01:16:14.107Z,16.30
2022-08-10T01:18:53.668Z,16.18
2022-08-10T01:21:56.795Z,16.14
2022-08-10T01:24:52.666Z,16.07
2022-08-10T01:27:33.180Z,16.00
2022-08-10T01:30:09.166Z,15.95
2022-08-10T01:32:49.285Z,15.90
2022-08-10T01:35:27.958Z,15.82
2022-08-10T01:38:05.878Z,15.80
2022-08-10T01:40:39.687Z,15.80
2022-08-10T01:43:17.386Z,15.26
2022-08-10T01:45:52.341Z,15.76
2022-08-10T01:48:34.904Z,15.65
2022-08-10T01:51:10.641Z,15.59
2022-08-10T01:53:51.874Z,15.50
2022-08-10T01:56:23.624Z,15.50
2022-08-10T01:59:11.253Z,15.49
2022-08-10T02:01:49.111Z,15.49
2022-08-10T02:04:23.004Z,15.46
2022-08-10T02:06:52.739Z,15.44
2022-08-10T02:09:25.830Z,15.36
2022-08-10T02:12:07.460Z,15.23
2022-08-10T02:14:44.005Z,15.10
2022-08-10T02:17:59.259Z,15.00
2022-08-10T02:20:12.223Z,14.92
2022-08-10T02:22:45.332Z,14.42
2022-08-10T02:25:42.676Z,15.12
2022-08-10T02:28:08.342Z,15.38
2022-08-10T02:30:38.360Z,15.49
2022-08-10T02:33:17.152Z,15.53
2022-08-10T02:35:56.872Z,15.53
2022-08-10T02:38:59.203Z,15.45
2022-08-10T02:45:13.076Z,15.44
2022-08-10T02:45:15.810Z,15.35
2022-08-10T02:47:50.715Z,15.31
2022-08-10T02:50:32.176Z,15.23
2022-08-10T02:53:08.454Z,15.22
2022-08-10T02:56:11.460Z,15.10
2022-08-10T02:58:44.140Z,15.03
2022-08-10T03:01:17.344Z,15.01
2022-08-10T03:03:58.419Z,14.97
2022-08-10T03:06:36.866Z,14.91
2022-08-10T03:09:10.873Z,14.82
2022-08-10T03:12:36.157Z,14.68
2022-08-10T03:14:35.308Z,14.56
2022-08-10T03:17:07.415Z,14.53
2022-08-10T03:20:33.308Z,14.54
2022-08-10T03:22:33.285Z,14.52
2022-08-10T03:25:03.621Z,14.46
2022-08-10T03:27:34.787Z,14.42
2022-08-10T03:30:29.359Z,14.34
2022-08-10T03:32:56.296Z,14.33
2022-08-10T03:35:25.896Z,14.35
2022-08-10T03:37:59.476Z,14.34
2022-08-10T03:40:46.365Z,14.32
2022-08-10T03:43:28.146Z,14.26
2022-08-10T03:46:02.263Z,14.26
2022-08-10T03:48:48.913Z,14.26
2022-08-10T03:51:19.885Z,14.30
2022-08-10T03:54:04.281Z,14.35
2022-08-10T03:56:43.904Z,14.36
2022-08-10T03:59:16.347Z,14.34
2022-08-10T04:02:41.847Z,14.38
2022-08-10T04:04:38.720Z,14.43
2022-08-10T04:07:08.043Z,14.46
2022-08-10T04:09:54.304Z,14.48
2022-08-10T04:12:27.663Z,14.52
2022-08-10T04:14:56.622Z,14.56
2022-08-10T04:18:02.810Z,14.63
2022-08-10T04:20:46.673Z,14.75
2022-08-10T04:23:20.000Z,14.94
2022-08-10T04:25:53.668Z,15.06
2022-08-10T04:28:24.762Z,15.24
2022-08-10T04:31:00.021Z,15.40
2022-08-10T04:33:32.902Z,15.55
2022-08-10T04:36:04.383Z,15.67
2022-08-10T04:38:35.248Z,15.78
2022-08-10T04:41:05.920Z,15.91
2022-08-10T04:43:37.172Z,16.01
2022-08-10T04:46:08.863Z,16.06
2022-08-10T04:49:02.025Z,16.11
2022-08-10T04:51:32.540Z,16.18
2022-08-10T04:54:07.331Z,16.29
2022-08-10T04:56:45.493Z,16.35
2022-08-10T04:59:17.225Z,16.39
2022-08-10T05:02:28.057Z,16.37
2022-08-10T05:04:39.356Z,16.29
2022-08-10T05:07:16.904Z,16.31
2022-08-10T05:10:04.066Z,16.44
2022-08-10T05:12:40.200Z,16.56
2022-08-10T05:15:11.215Z,16.64
2022-08-10T05:18:06.859Z,16.60
2022-08-10T05:20:31.628Z,16.59
2022-08-10T05:23:00.386Z,16.72
2022-08-10T05:25:37.470Z,16.79
2022-08-10T05:28:08.906Z,16.91
2022-08-10T05:30:37.684Z,17.01
2022-08-10T05:33:13.881Z,17.15
2022-08-10T05:35:57.071Z,17.25
2022-08-10T05:38:29.503Z,17.40
2022-08-10T05:41:00.018Z,17.46
2022-08-10T05:43:33.335Z,17.50
2022-08-10T05:46:19.687Z,17.49
2022-08-10T05:49:01.220Z,17.55
2022-08-10T05:51:40.364Z,17.55
2022-08-10T05:54:15.043Z,17.61
2022-08-10T05:56:53.632Z,17.69
2022-08-10T06:00:10.924Z,17.76
2022-08-10T06:02:31.589Z,17.80
2022-08-10T06:05:13.514Z,17.85
2022-08-10T06:07:50.277Z,17.86
2022-08-10T06:10:35.650Z,17.87
2022-08-10T06:13:30.524Z,17.95
2022-08-10T06:16:07.315Z,18.09
2022-08-10T06:18:37.205Z,18.12
2022-08-10T06:21:12.933Z,18.17
2022-08-10T06:23:42.493Z,18.24
2022-08-10T06:26:17.390Z,18.23
2022-08-10T06:29:03.642Z,18.34
2022-08-10T06:31:47.611Z,18.51
2022-08-10T06:34:20.250Z,18.57
2022-08-10T06:36:49.706Z,18.61
2022-08-10T06:39:35.475Z,18.64
2022-08-10T06:42:17.693Z,18.70
2022-08-10T06:44:55.855Z,18.74
2022-08-10T06:47:30.730Z,18.81
2022-08-10T06:50:09.202Z,18.95
2022-08-10T06:52:39.433Z,19.11
2022-08-10T06:55:16.852Z,19.18
2022-08-10T06:57:59.727Z,19.23
2022-08-10T07:00:34.169Z,19.29
2022-08-10T07:03:09.307Z,19.34
2022-08-10T07:05:41.749Z,19.46
2022-08-10T07:08:13.068Z,19.56
2022-08-10T07:10:46.267Z,19.66
2022-08-10T07:14:14.740Z,19.82
2022-08-10T07:16:12.364Z,19.90
2022-08-10T07:18:45.538Z,19.98
2022-08-10T07:21:16.121Z,20.09
2022-08-10T07:23:57.128Z,20.17
2022-08-10T07:26:30.385Z,20.30
2022-08-10T07:29:00.631Z,20.43
2022-08-10T07:31:55.040Z,20.53
2022-08-10T07:34:29.372Z,20.71
2022-08-10T07:37:07.221Z,20.82
2022-08-10T07:40:02.371Z,20.90
2022-08-10T07:42:31.284Z,20.99
2022-08-10T07:45:00.726Z,21.13
2022-08-10T07:47:53.832Z,21.24
2022-08-10T07:50:26.186Z,21.36
2022-08-10T07:52:58.876Z,21.47
2022-08-10T07:56:05.054Z,21.54
2022-08-10T07:58:19.192Z,21.68
2022-08-10T08:00:49.336Z,21.78
2022-08-10T08:03:22.011Z,21.88
2022-08-10T08:05:59.119Z,21.99
2022-08-10T08:08:33.599Z,22.02
2022-08-10T08:11:04.374Z,22.06
2022-08-10T08:13:35.506Z,22.15
2022-08-10T08:16:18.270Z,22.27
2022-08-10T08:24:06.838Z,22.58
2022-08-10T08:24:36.781Z,22.63
2022-08-10T08:27:07.860Z,22.71
2022-08-10T08:29:40.263Z,22.88
2022-08-10T08:32:12.120Z,22.98
2022-08-10T08:34:45.233Z,23.02
2022-08-10T08:38:31.604Z,23.00
2022-08-10T08:40:12.761Z,23.19
2022-08-10T08:43:21.792Z,23.29
2022-08-10T08:46:15.365Z,23.34
2022-08-10T08:50:07.957Z,23.44
2022-08-10T08:52:51.103Z,23.61
2022-08-10T08:56:03.611Z,23.68
2022-08-10T08:58:38.662Z,23.72
2022-08-10T09:01:22.526Z,23.73
2022-08-10T09:04:00.230Z,23.85
2022-08-10T09:06:47.069Z,23.89
2022-08-10T09:09:56.426Z,23.98
2022-08-10T09:12:39.585Z,23.99
2022-08-10T09:15:40.639Z,24.09
2022-08-10T09:18:16.499Z,24.17
2022-08-10T09:20:51.796Z,24.23
2022-08-10T09:24:01.877Z,24.34
2022-08-10T09:26:22.595Z,24.44
2022-08-10T09:29:11.913Z,24.45
2022-08-10T09:31:55.895Z,24.43
2022-08-10T09:36:25.383Z,24.53
2022-08-10T09:38:01.924Z,24.71
2022-08-10T09:40:59.482Z,24.68
2022-08-10T09:43:42.091Z,24.74
2022-08-10T09:46:21.580Z,24.78
2022-08-10T09:49:02.473Z,24.86
2022-08-10T09:51:46.729Z,24.91
2022-08-10T09:54:38.291Z,24.95
2022-08-10T09:57:44.663Z,25.03
2022-08-10T10:00:20.139Z,25.08
2022-08-10T10:03:00.795Z,25.22
2022-08-10T10:05:52.127Z,25.44
2022-08-10T10:08:33.572Z,25.65
2022-08-10T10:11:13.303Z,25.79
2022-08-10T10:14:03.083Z,25.80
2022-08-10T10:16:47.234Z,25.93
2022-08-10T10:19:39.937Z,25.97
2022-08-10T10:22:26.430Z,26.02
2022-08-10T10:25:00.712Z,26.05
2022-08-10T10:27:40.625Z,26.19
2022-08-10T10:30:12.854Z,26.34
2022-08-10T10:32:59.714Z,26.51
2022-08-10T10:35:37.799Z,26.70
2022-08-10T10:38:10.522Z,26.96
2022-08-10T10:40:45.622Z,27.13
2022-08-10T10:43:32.292Z,27.33
2022-08-10T10:46:12.872Z,27.34
2022-08-10T10:48:53.709Z,27.42
2022-08-10T10:51:29.779Z,27.56
2022-08-10T10:54:09.264Z,27.67
2022-08-10T10:56:50.403Z,27.81
2022-08-10T10:59:55.591Z,27.98
2022-08-10T11:02:33.018Z,28.10
2022-08-10T11:05:22.355Z,27.91
2022-08-10T11:07:57.235Z,27.86
2022-08-10T11:10:33.405Z,27.81
2022-08-10T11:14:25.481Z,27.66
2022-08-10T11:16:18.720Z,27.68
2022-08-10T11:19:01.789Z,27.76
2022-08-10T11:21:44.285Z,27.82
2022-08-10T11:24:46.777Z,27.76
2022-08-10T11:27:22.510Z,27.79
2022-08-10T11:30:09.432Z,27.76
2022-08-10T11:32:54.644Z,27.82
2022-08-10T11:35:34.735Z,28.02
2022-08-10T11:38:33.007Z,28.14
2022-08-10T11:42:05.496Z,28.18
2022-08-10T11:44:11.636Z,28.45
2022-08-10T11:46:48.291Z,28.64
2022-08-10T11:49:31.012Z,28.56
2022-08-10T11:52:05.885Z,28.52
2022-08-10T11:54:52.951Z,28.52
2022-08-10T11:57:24.118Z,28.41
2022-08-10T12:00:19.405Z,28.51
2022-08-10T12:02:55.356Z,28.85
2022-08-10T12:05:46.611Z,28.86
2022-08-10T12:10:06.514Z,28.41
2022-08-10T12:11:17.190Z,28.52
2022-08-10T12:14:21.011Z,28.38
2022-08-10T12:16:53.794Z,28.13
2022-08-10T12:19:30.275Z,27.97
2022-08-10T12:22:24.491Z,27.62
2022-08-10T12:24:57.360Z,27.40
2022-08-10T12:27:32.637Z,27.19
2022-08-10T12:30:05.427Z,27.13
2022-08-10T12:32:43.352Z,27.00
2022-08-10T12:35:26.035Z,27.02
2022-08-10T12:38:07.119Z,27.08
2022-08-10T12:40:43.328Z,27.30
2022-08-10T12:44:06.604Z,27.61
2022-08-10T12:46:40.322Z,27.92
2022-08-10T12:49:16.275Z,28.05
2022-08-10T12:51:49.515Z,27.93
2022-08-10T12:54:32.022Z,27.78
2022-08-10T12:57:06.695Z,27.56
2022-08-10T12:59:43.126Z,27.35
2022-08-10T13:02:19.994Z,27.25
2022-08-10T13:04:53.085Z,27.11
2022-08-10T13:08:25.540Z,27.14
2022-08-10T13:10:19.373Z,27.14
2022-08-10T13:12:52.598Z,27.15
2022-08-10T13:15:48.475Z,27.15
2022-08-10T13:18:19.648Z,27.18
2022-08-10T13:20:53.803Z,27.31
2022-08-10T13:23:26.979Z,27.52
2022-08-10T13:26:00.630Z,27.73
2022-08-10T13:28:40.092Z,27.98
2022-08-10T13:31:17.390Z,28.25
2022-08-10T13:34:39.953Z,28.55
2022-08-10T13:36:43.181Z,28.68
2022-08-10T13:39:13.806Z,28.73
2022-08-10T13:41:45.907Z,28.86
2022-08-10T13:44:19.372Z,29.06
2022-08-10T13:46:52.744Z,29.21
2022-08-10T13:49:22.782Z,29.28
2022-08-10T13:51:58.153Z,29.36
2022-08-10T13:54:37.220Z,29.39
2022-08-10T13:57:09.518Z,29.24
2022-08-10T14:00:36.105Z,28.85
2022-08-10T14:02:36.015Z,28.68
2022-08-10T14:05:06.274Z,28.46
2022-08-10T14:07:39.661Z,28.51
2022-08-10T14:11:09.902Z,28.52
2022-08-10T14:13:25.644Z,28.39
2022-08-10T14:15:55.950Z,28.46
2022-08-10T14:18:27.777Z,28.40
2022-08-10T14:21:00.294Z,28.34
2022-08-10T14:23:35.332Z,28.28
2022-08-10T14:26:09.085Z,28.19
2022-08-10T14:28:42.453Z,28.20
2022-08-10T14:31:13.459Z,28.22
2022-08-10T14:33:50.943Z,28.29
2022-08-10T14:36:26.497Z,28.27
2022-08-10T14:38:57.475Z,28.28
2022-08-10T14:42:04.456Z,28.27
2022-08-10T14:44:20.391Z,28.29
2022-08-10T14:46:55.746Z,28.30
2022-08-10T14:49:27.334Z,28.28
2022-08-10T14:52:02.434Z,28.28
2022-08-10T14:54:34.255Z,28.32
2022-08-10T14:57:11.259Z,28.40
2022-08-10T15:00:23.119Z,28.37
2022-08-10T15:02:53.145Z,28.40
2022-08-10T15:05:39.283Z,28.27
2022-08-10T15:08:11.403Z,28.41
2022-08-10T15:10:40.743Z,28.49
2022-08-10T15:13:33.850Z,28.52
2022-08-10T15:16:12.455Z,28.62
2022-08-10T15:18:58.183Z,28.73
2022-08-10T15:21:42.327Z,28.74
2022-08-10T15:24:37.653Z,28.89
2022-08-10T15:27:09.944Z,28.98
2022-08-10T15:29:57.796Z,29.03
2022-08-10T15:32:54.159Z,28.92
2022-08-10T15:35:45.466Z,29.00
2022-08-10T15:38:26.746Z,28.95
2022-08-10T15:41:13.498Z,28.60
2022-08-10T15:43:48.621Z,28.53
2022-08-10T15:46:30.014Z,28.52
2022-08-10T15:49:02.638Z,28.45
2022-08-10T15:51:53.933Z,28.13
2022-08-10T15:54:33.216Z,27.85
2022-08-10T15:57:08.029Z,27.69
2022-08-10T15:59:46.123Z,27.60
2022-08-10T16:02:18.994Z,27.56
2022-08-10T16:05:00.651Z,27.55
2022-08-10T16:08:03.764Z,27.35
2022-08-10T16:10:45.347Z,27.50
2022-08-10T16:13:50.702Z,27.52
2022-08-10T16:16:16.749Z,27.51
2022-08-10T16:18:47.243Z,27.50
2022-08-10T16:21:17.915Z,27.47
2022-08-10T16:24:15.161Z,27.43
2022-08-10T16:26:49.006Z,27.34
2022-08-10T16:29:22.696Z,27.26
2022-08-10T16:31:55.009Z,27.13
2022-08-10T16:34:27.132Z,27.00
2022-08-10T16:36:58.271Z,26.95
2022-08-10T16:39:57.578Z,26.88
2022-08-10T16:42:22.625Z,26.81
2022-08-10T16:44:54.444Z,26.71
2022-08-10T16:47:27.635Z,26.63
2022-08-10T16:49:59.519Z,26.58
2022-08-10T16:52:30.618Z,26.56
2022-08-10T16:55:16.945Z,26.66
2022-08-10T16:57:58.059Z,26.59
2022-08-10T17:00:29.152Z,26.67
2022-08-10T17:03:02.715Z,26.85
2022-08-10T17:06:01.463Z,26.88
2022-08-10T17:08:48.563Z,26.98
2022-08-10T17:11:19.634Z,27.08
2022-08-10T17:13:50.150Z,27.25
2022-08-10T17:16:21.768Z,27.47
2022-08-10T17:18:51.126Z,27.62
2022-08-10T17:21:22.476Z,27.67
2022-08-10T17:23:55.642Z,27.72
2022-08-10T17:26:35.653Z,27.75
2022-08-10T17:29:17.493Z,27.78
2022-08-10T17:32:09.682Z,27.78
2022-08-10T17:34:44.944Z,27.76
2022-08-10T17:37:20.056Z,27.75
2022-08-10T17:39:52.714Z,27.69
2022-08-10T17:42:23.770Z,27.63
2022-08-10T17:44:56.494Z,27.53
2022-08-10T17:47:37.599Z,27.42
2022-08-10T17:50:09.299Z,27.34
2022-08-10T17:52:38.397Z,27.26
2022-08-10T17:55:09.881Z,27.16
2022-08-10T17:58:01.852Z,27.01
2022-08-10T18:00:34.322Z,26.89
2022-08-10T18:03:04.208Z,26.78
2022-08-10T18:05:35.888Z,26.64
2022-08-10T18:08:14.837Z,26.55
2022-08-10T18:10:44.335Z,26.39
2022-08-10T18:13:19.571Z,26.26
2022-08-10T18:15:51.282Z,26.06
2022-08-10T18:18:23.133Z,25.92
2022-08-10T18:21:02.244Z,25.73
2022-08-10T18:23:35.800Z,25.55
2022-08-10T18:26:10.731Z,25.40
2022-08-10T18:28:42.329Z,24.78
2022-08-10T18:31:21.031Z,25.09
2022-08-10T18:33:55.043Z,24.94
2022-08-10T18:36:27.243Z,24.79
2022-08-10T18:39:00.331Z,24.68
2022-08-10T18:41:35.395Z,24.68
2022-08-10T18:44:14.712Z,24.69
2022-08-10T18:46:48.613Z,24.70
2022-08-10T18:49:33.147Z,24.72
2022-08-10T18:52:08.287Z,24.66
2022-08-10T18:54:44.855Z,24.58
2022-08-10T18:57:28.926Z,24.48
2022-08-10T19:00:09.268Z,24.43
2022-08-10T19:03:17.301Z,24.55
2022-08-10T19:06:10.679Z,24.45
2022-08-10T19:09:46.218Z,24.52
2022-08-10T19:12:30.862Z,24.33
2022-08-10T19:15:10.986Z,24.17
2022-08-10T19:18:05.799Z,24.00
2022-08-10T19:20:42.837Z,23.93
2022-08-10T19:23:28.171Z,23.86
2022-08-10T19:26:42.325Z,23.70
2022-08-10T19:30:08.755Z,23.24
2022-08-10T19:32:17.059Z,23.56
2022-08-10T19:34:56.713Z,23.55
2022-08-10T19:37:35.364Z,23.43
2022-08-10T19:40:44.035Z,23.31
2022-08-10T19:43:59.457Z,23.20
2022-08-10T19:46:27.440Z,23.04
2022-08-10T19:49:04.360Z,22.94
2022-08-10T19:51:48.447Z,22.81
2022-08-10T19:54:26.380Z,22.74
2022-08-10T19:57:10.346Z,22.63
2022-08-10T20:00:15.926Z,22.43
2022-08-10T20:03:03.009Z,22.19
2022-08-10T20:05:35.119Z,22.03
2022-08-10T20:08:19.488Z,21.87
2022-08-10T20:10:56.327Z,21.69
2022-08-10T20:13:30.730Z,21.62
2022-08-10T20:16:06.520Z,21.60
2022-08-10T20:18:42.318Z,21.54
2022-08-10T20:21:13.975Z,21.45
2022-08-10T20:24:03.300Z,21.36
2022-08-10T20:26:44.313Z,21.31
2022-08-10T20:29:57.121Z,21.32
2022-08-10T20:32:22.176Z,21.36
2022-08-10T20:34:59.660Z,21.28
2022-08-10T20:38:02.675Z,21.14
2022-08-10T20:40:37.458Z,21.10
2022-08-10T20:43:20.417Z,21.02
2022-08-10T20:46:12.084Z,20.90
2022-08-10T20:48:47.377Z,20.74
2022-08-10T20:51:23.429Z,20.60
2022-08-10T20:54:21.387Z,20.48
2022-08-10T20:57:02.861Z,20.56
2022-08-10T21:00:04.171Z,20.52
2022-08-10T21:03:15.926Z,20.38
2022-08-10T21:06:04.461Z,20.17
2022-08-10T21:08:52.146Z,20.05
2022-08-10T21:11:33.268Z,19.98
2022-08-10T21:14:29.396Z,19.93
2022-08-10T21:17:17.653Z,20.07
2022-08-10T21:20:28.699Z,20.05
2022-08-10T21:23:05.879Z,19.84
2022-08-10T21:25:49.205Z,19.72
2022-08-10T21:28:53.150Z,19.62
2022-08-10T21:31:45.300Z,19.52
2022-08-10T21:34:35.442Z,19.44
2022-08-10T21:37:17.809Z,19.37
2022-08-10T21:40:04.886Z,19.31
2022-08-10T21:43:08.454Z,19.26
2022-08-10T21:46:09.180Z,19.19
2022-08-10T21:49:06.970Z,19.14
2022-08-10T21:52:04.156Z,19.10
2022-08-10T21:55:09.017Z,19.05
2022-08-10T21:58:08.609Z,19.18
2022-08-10T22:01:01.606Z,19.25
2022-08-10T22:03:48.536Z,19.35
2022-08-10T22:06:52.621Z,19.40
2022-08-10T22:09:47.436Z,19.40
2022-08-10T22:16:10.021Z,19.22
2022-08-10T22:19:02.980Z,19.08
2022-08-10T22:22:19.649Z,18.88
2022-08-10T22:25:40.249Z,18.75
2022-08-10T22:28:34.293Z,18.67
2022-08-10T22:31:25.832Z,19.32
2022-08-10T22:31:39.207Z,18.59
2022-08-10T22:35:03.611Z,18.50
2022-08-10T22:38:07.977Z,18.45
2022-08-10T22:40:55.347Z,18.40
2022-08-10T22:43:49.474Z,17.67
2022-08-10T22:46:42.029Z,18.31
2022-08-10T22:49:11.807Z,18.28
2022-08-10T22:51:52.338Z,18.19
2022-08-10T22:54:58.020Z,18.14
2022-08-10T22:57:44.572Z,18.09
2022-08-10T23:00:19.577Z,18.04
2022-08-10T23:03:08.331Z,18.06
2022-08-10T23:05:53.360Z,18.08
2022-08-10T23:08:30.516Z,17.99
2022-08-10T23:11:09.032Z,17.93
2022-08-10T23:13:42.431Z,17.89
2022-08-10T23:16:37.118Z,17.83
2022-08-10T23:19:11.412Z,17.79
2022-08-10T23:22:04.991Z,17.74
2022-08-10T23:24:47.580Z,17.69
2022-08-10T23:27:38.001Z,17.62
2022-08-10T23:30:17.970Z,17.62
2022-08-10T23:32:59.692Z,17.57
2022-08-10T23:36:05.597Z,17.53
2022-08-10T23:38:31.394Z,17.47
2022-08-10T23:41:05.578Z,17.43
2022-08-10T23:44:03.452Z,17.44
2022-08-10T23:46:42.477Z,17.40
2022-08-10T23:49:17.530Z,17.35
2022-08-10T23:51:55.379Z,17.35
2022-08-10T23:54:27.497Z,17.31
2022-08-10T23:57:01.370Z,17.25
2022-08-10T23:59:33.607Z,17.18
